sensor_id;sensor_type;location;lat;lon;timestamp;P1;durP1;ratioP1;P2;durP2;ratioP2
46290;SDS011;32023;44.444;26.006;2023-05-07T00:06:07;8.77;;;3.75;;
46290;SDS011;32023;44.444;26.006;2023-05-07T00:22:06;7.53;;;3.40;;
46290;SDS011;32023;44.444;26.006;2023-05-07T00:24:53;9.75;;;3.72;;
46290;SDS011;32023;44.444;26.006;2023-05-07T00:33:40;8.07;;;3.53;;
46290;SDS011;32023;44.444;26.006;2023-05-07T00:36:45;7.85;;;3.08;;
46290;SDS011;32023;44.444;26.006;2023-05-07T00:39:58;8.27;;;3.00;;
46290;SDS011;32023;44.444;26.006;2023-05-07T00:42:39;7.38;;;3.47;;
46290;SDS011;32023;44.444;26.006;2023-05-07T00:45:37;13.13;;;3.15;;
46290;SDS011;32023;44.444;26.006;2023-05-07T00:48:24;7.63;;;3.00;;
46290;SDS011;32023;44.444;26.006;2023-05-07T00:50:51;8.20;;;3.55;;
46290;SDS011;32023;44.444;26.006;2023-05-07T00:53:25;5.47;;;3.22;;
46290;SDS011;32023;44.444;26.006;2023-05-07T00:56:00;7.72;;;2.72;;
46290;SDS011;32023;44.444;26.006;2023-05-07T00:58:47;8.15;;;2.97;;
46290;SDS011;32023;44.444;26.006;2023-05-07T01:01:14;7.43;;;3.83;;
46290;SDS011;32023;44.444;26.006;2023-05-07T01:03:47;6.55;;;2.70;;
46290;SDS011;32023;44.444;26.006;2023-05-07T01:06:16;5.97;;;3.25;;
46290;SDS011;32023;44.444;26.006;2023-05-07T01:11:43;14.75;;;3.42;;
46290;SDS011;32023;44.444;26.006;2023-05-07T01:14:32;8.80;;;3.00;;
46290;SDS011;32023;44.444;26.006;2023-05-07T01:17:00;9.25;;;3.45;;
46290;SDS011;32023;44.444;26.006;2023-05-07T01:19:28;5.63;;;2.70;;
46290;SDS011;32023;44.444;26.006;2023-05-07T01:22:10;8.07;;;3.33;;
46290;SDS011;32023;44.444;26.006;2023-05-07T01:24:50;7.15;;;3.35;;
46290;SDS011;32023;44.444;26.006;2023-05-07T01:32:53;8.15;;;4.00;;
46290;SDS011;32023;44.444;26.006;2023-05-07T01:35:38;10.00;;;3.30;;
46290;SDS011;32023;44.444;26.006;2023-05-07T01:43:45;10.07;;;3.92;;
46290;SDS011;32023;44.444;26.006;2023-05-07T01:46:25;10.90;;;3.78;;
46290;SDS011;32023;44.444;26.006;2023-05-07T01:49:02;14.25;;;3.80;;
46290;SDS011;32023;44.444;26.006;2023-05-07T01:52:01;4.47;;;3.10;;
46290;SDS011;32023;44.444;26.006;2023-05-07T01:54:34;9.00;;;3.20;;
46290;SDS011;32023;44.444;26.006;2023-05-07T01:57:20;10.00;;;3.70;;
46290;SDS011;32023;44.444;26.006;2023-05-07T01:59:53;6.18;;;3.50;;
46290;SDS011;32023;44.444;26.006;2023-05-07T02:05:50;5.20;;;3.40;;
46290;SDS011;32023;44.444;26.006;2023-05-07T02:19:45;7.60;;;3.72;;
46290;SDS011;32023;44.444;26.006;2023-05-07T02:22:13;9.38;;;3.50;;
46290;SDS011;32023;44.444;26.006;2023-05-07T02:24:56;6.65;;;3.40;;
46290;SDS011;32023;44.444;26.006;2023-05-07T02:44:25;8.25;;;4.20;;
46290;SDS011;32023;44.444;26.006;2023-05-07T02:47:08;9.88;;;3.95;;
46290;SDS011;32023;44.444;26.006;2023-05-07T02:49:41;10.63;;;4.30;;
46290;SDS011;32023;44.444;26.006;2023-05-07T02:57:37;12.00;;;4.25;;
46290;SDS011;32023;44.444;26.006;2023-05-07T03:06:36;14.55;;;3.70;;
46290;SDS011;32023;44.444;26.006;2023-05-07T03:09:24;8.27;;;3.53;;
46290;SDS011;32023;44.444;26.006;2023-05-07T03:27:31;9.05;;;4.50;;
46290;SDS011;32023;44.444;26.006;2023-05-07T03:33:20;6.95;;;3.35;;
46290;SDS011;32023;44.444;26.006;2023-05-07T03:36:21;10.13;;;3.60;;
46290;SDS011;32023;44.444;26.006;2023-05-07T03:39:03;5.75;;;2.95;;
46290;SDS011;32023;44.444;26.006;2023-05-07T03:45:19;6.03;;;3.42;;
46290;SDS011;32023;44.444;26.006;2023-05-07T03:50:41;7.45;;;3.33;;
46290;SDS011;32023;44.444;26.006;2023-05-07T03:53:30;7.53;;;3.85;;
46290;SDS011;32023;44.444;26.006;2023-05-07T03:56:26;13.07;;;3.33;;
46290;SDS011;32023;44.444;26.006;2023-05-07T03:59:17;14.50;;;3.70;;
46290;SDS011;32023;44.444;26.006;2023-05-07T04:07:10;6.40;;;3.17;;
46290;SDS011;32023;44.444;26.006;2023-05-07T04:12:27;6.15;;;3.88;;
46290;SDS011;32023;44.444;26.006;2023-05-07T04:15:06;9.93;;;3.58;;
46290;SDS011;32023;44.444;26.006;2023-05-07T04:21:26;7.97;;;3.33;;
46290;SDS011;32023;44.444;26.006;2023-05-07T04:26:57;12.20;;;3.70;;
46290;SDS011;32023;44.444;26.006;2023-05-07T04:29:33;8.52;;;3.58;;
46290;SDS011;32023;44.444;26.006;2023-05-07T04:32:04;6.75;;;3.47;;
46290;SDS011;32023;44.444;26.006;2023-05-07T04:35:05;7.45;;;3.10;;
46290;SDS011;32023;44.444;26.006;2023-05-07T04:38:35;6.03;;;2.88;;
46290;SDS011;32023;44.444;26.006;2023-05-07T04:41:13;7.03;;;3.05;;
46290;SDS011;32023;44.444;26.006;2023-05-07T04:43:42;5.00;;;3.15;;
46290;SDS011;32023;44.444;26.006;2023-05-07T04:46:55;7.57;;;3.40;;
46290;SDS011;32023;44.444;26.006;2023-05-07T04:49:44;5.38;;;3.15;;
46290;SDS011;32023;44.444;26.006;2023-05-07T04:52:43;6.65;;;2.83;;
46290;SDS011;32023;44.444;26.006;2023-05-07T04:57:49;8.05;;;3.13;;
46290;SDS011;32023;44.444;26.006;2023-05-07T05:00:27;10.07;;;2.80;;
46290;SDS011;32023;44.444;26.006;2023-05-07T05:03:18;5.22;;;2.80;;
46290;SDS011;32023;44.444;26.006;2023-05-07T05:08:49;5.10;;;2.40;;
46290;SDS011;32023;44.444;26.006;2023-05-07T05:11:15;7.03;;;2.58;;
46290;SDS011;32023;44.444;26.006;2023-05-07T05:13:47;7.18;;;2.50;;
46290;SDS011;32023;44.444;26.006;2023-05-07T05:16:35;10.52;;;2.88;;
46290;SDS011;32023;44.444;26.006;2023-05-07T05:21:34;6.05;;;2.38;;
46290;SDS011;32023;44.444;26.006;2023-05-07T05:24:03;7.35;;;2.60;;
46290;SDS011;32023;44.444;26.006;2023-05-07T05:26:48;5.18;;;2.58;;
46290;SDS011;32023;44.444;26.006;2023-05-07T05:29:18;9.25;;;2.90;;
46290;SDS011;32023;44.444;26.006;2023-05-07T05:34:45;7.43;;;2.40;;
46290;SDS011;32023;44.444;26.006;2023-05-07T05:37:31;11.63;;;2.75;;
46290;SDS011;32023;44.444;26.006;2023-05-07T05:42:31;10.23;;;2.95;;
46290;SDS011;32023;44.444;26.006;2023-05-07T05:45:29;5.47;;;3.50;;
46290;SDS011;32023;44.444;26.006;2023-05-07T05:48:00;5.03;;;2.42;;
46290;SDS011;32023;44.444;26.006;2023-05-07T05:50:35;5.90;;;2.37;;
46290;SDS011;32023;44.444;26.006;2023-05-07T05:53:25;4.15;;;2.40;;
46290;SDS011;32023;44.444;26.006;2023-05-07T05:56:12;9.05;;;2.60;;
46290;SDS011;32023;44.444;26.006;2023-05-07T05:58:43;6.90;;;2.75;;
46290;SDS011;32023;44.444;26.006;2023-05-07T06:01:10;4.68;;;2.80;;
46290;SDS011;32023;44.444;26.006;2023-05-07T06:03:41;10.60;;;2.80;;
46290;SDS011;32023;44.444;26.006;2023-05-07T06:06:12;5.53;;;2.72;;
46290;SDS011;32023;44.444;26.006;2023-05-07T06:08:43;3.97;;;2.50;;
46290;SDS011;32023;44.444;26.006;2023-05-07T06:11:33;7.50;;;2.55;;
46290;SDS011;32023;44.444;26.006;2023-05-07T06:14:08;7.43;;;3.00;;
46290;SDS011;32023;44.444;26.006;2023-05-07T06:23:04;7.85;;;3.70;;
46290;SDS011;32023;44.444;26.006;2023-05-07T06:32:10;4.38;;;2.08;;
46290;SDS011;32023;44.444;26.006;2023-05-07T06:47:44;3.03;;;1.98;;
46290;SDS011;32023;44.444;26.006;2023-05-07T06:56:38;4.35;;;1.95;;
46290;SDS011;32023;44.444;26.006;2023-05-07T07:04:24;2.55;;;1.63;;
46290;SDS011;32023;44.444;26.006;2023-05-07T07:06:53;7.07;;;2.22;;
46290;SDS011;32023;44.444;26.006;2023-05-07T07:09:29;4.47;;;2.08;;
46290;SDS011;32023;44.444;26.006;2023-05-07T07:12:05;4.72;;;1.90;;
46290;SDS011;32023;44.444;26.006;2023-05-07T07:14:31;3.95;;;1.90;;
46290;SDS011;32023;44.444;26.006;2023-05-07T07:17:23;4.43;;;2.17;;
46290;SDS011;32023;44.444;26.006;2023-05-07T07:19:49;4.63;;;2.17;;
46290;SDS011;32023;44.444;26.006;2023-05-07T07:22:18;6.32;;;1.77;;
46290;SDS011;32023;44.444;26.006;2023-05-07T07:34:55;8.02;;;2.17;;
46290;SDS011;32023;44.444;26.006;2023-05-07T07:37:23;2.45;;;1.85;;
46290;SDS011;32023;44.444;26.006;2023-05-07T07:39:52;3.10;;;2.35;;
46290;SDS011;32023;44.444;26.006;2023-05-07T07:42:23;7.85;;;2.35;;
46290;SDS011;32023;44.444;26.006;2023-05-07T07:44:50;5.50;;;2.30;;
46290;SDS011;32023;44.444;26.006;2023-05-07T07:47:16;3.20;;;2.08;;
46290;SDS011;32023;44.444;26.006;2023-05-07T07:49:42;8.43;;;2.00;;
46290;SDS011;32023;44.444;26.006;2023-05-07T07:52:09;5.18;;;2.10;;
46290;SDS011;32023;44.444;26.006;2023-05-07T07:54:37;5.03;;;1.88;;
46290;SDS011;32023;44.444;26.006;2023-05-07T07:57:04;4.88;;;1.95;;
46290;SDS011;32023;44.444;26.006;2023-05-07T07:59:36;7.55;;;2.13;;
46290;SDS011;32023;44.444;26.006;2023-05-07T08:02:06;7.88;;;2.92;;
46290;SDS011;32023;44.444;26.006;2023-05-07T08:04:35;8.15;;;2.67;;
46290;SDS011;32023;44.444;26.006;2023-05-07T08:07:02;10.13;;;2.60;;
46290;SDS011;32023;44.444;26.006;2023-05-07T08:09:29;8.07;;;2.50;;
46290;SDS011;32023;44.444;26.006;2023-05-07T08:11:55;3.70;;;2.50;;
46290;SDS011;32023;44.444;26.006;2023-05-07T08:14:22;7.30;;;2.78;;
46290;SDS011;32023;44.444;26.006;2023-05-07T08:19:20;6.85;;;3.60;;
46290;SDS011;32023;44.444;26.006;2023-05-07T08:21:56;4.00;;;2.40;;
46290;SDS011;32023;44.444;26.006;2023-05-07T08:24:29;8.15;;;2.33;;
46290;SDS011;32023;44.444;26.006;2023-05-07T08:26:58;8.43;;;2.85;;
46290;SDS011;32023;44.444;26.006;2023-05-07T08:29:27;5.78;;;2.40;;
46290;SDS011;32023;44.444;26.006;2023-05-07T08:34:56;3.53;;;2.67;;
46290;SDS011;32023;44.444;26.006;2023-05-07T08:37:30;4.53;;;2.25;;
46290;SDS011;32023;44.444;26.006;2023-05-07T08:39:56;4.80;;;2.58;;
46290;SDS011;32023;44.444;26.006;2023-05-07T08:42:23;5.15;;;2.47;;
46290;SDS011;32023;44.444;26.006;2023-05-07T08:44:51;5.07;;;2.20;;
46290;SDS011;32023;44.444;26.006;2023-05-07T08:47:28;5.72;;;2.55;;
46290;SDS011;32023;44.444;26.006;2023-05-07T08:50:03;4.40;;;2.67;;
46290;SDS011;32023;44.444;26.006;2023-05-07T08:52:31;5.45;;;2.65;;
46290;SDS011;32023;44.444;26.006;2023-05-07T08:54:58;8.93;;;2.50;;
46290;SDS011;32023;44.444;26.006;2023-05-07T08:57:36;4.80;;;2.40;;
46290;SDS011;32023;44.444;26.006;2023-05-07T09:00:03;7.93;;;2.47;;
46290;SDS011;32023;44.444;26.006;2023-05-07T09:02:32;8.05;;;1.95;;
46290;SDS011;32023;44.444;26.006;2023-05-07T09:05:04;4.85;;;2.40;;
46290;SDS011;32023;44.444;26.006;2023-05-07T09:12:51;6.35;;;2.63;;
46290;SDS011;32023;44.444;26.006;2023-05-07T09:15:22;8.20;;;2.80;;
46290;SDS011;32023;44.444;26.006;2023-05-07T09:17:51;5.28;;;2.05;;
46290;SDS011;32023;44.444;26.006;2023-05-07T09:20:33;4.82;;;2.03;;
46290;SDS011;32023;44.444;26.006;2023-05-07T09:23:05;7.70;;;2.60;;
46290;SDS011;32023;44.444;26.006;2023-05-07T09:25:37;10.13;;;2.10;;
46290;SDS011;32023;44.444;26.006;2023-05-07T09:28:04;4.80;;;2.67;;
46290;SDS011;32023;44.444;26.006;2023-05-07T09:30:43;4.55;;;2.25;;
46290;SDS011;32023;44.444;26.006;2023-05-07T09:33:17;3.65;;;1.88;;
46290;SDS011;32023;44.444;26.006;2023-05-07T09:52:04;3.83;;;2.53;;
46290;SDS011;32023;44.444;26.006;2023-05-07T09:54:35;30.77;;;3.08;;
46290;SDS011;32023;44.444;26.006;2023-05-07T09:57:26;8.35;;;2.03;;
46290;SDS011;32023;44.444;26.006;2023-05-07T10:00:29;6.53;;;2.00;;
46290;SDS011;32023;44.444;26.006;2023-05-07T10:03:02;4.35;;;2.40;;
46290;SDS011;32023;44.444;26.006;2023-05-07T10:05:42;6.28;;;2.70;;
46290;SDS011;32023;44.444;26.006;2023-05-07T10:08:12;6.07;;;2.53;;
46290;SDS011;32023;44.444;26.006;2023-05-07T10:10:43;4.40;;;2.22;;
46290;SDS011;32023;44.444;26.006;2023-05-07T10:13:13;4.03;;;2.20;;
46290;SDS011;32023;44.444;26.006;2023-05-07T10:15:48;5.82;;;2.30;;
46290;SDS011;32023;44.444;26.006;2023-05-07T10:18:27;5.97;;;2.70;;
46290;SDS011;32023;44.444;26.006;2023-05-07T10:26:37;3.13;;;1.85;;
46290;SDS011;32023;44.444;26.006;2023-05-07T10:35:43;5.57;;;2.13;;
46290;SDS011;32023;44.444;26.006;2023-05-07T10:38:12;5.57;;;2.03;;
46290;SDS011;32023;44.444;26.006;2023-05-07T10:40:40;2.45;;;1.83;;
46290;SDS011;32023;44.444;26.006;2023-05-07T10:45:48;4.72;;;2.40;;
46290;SDS011;32023;44.444;26.006;2023-05-07T10:51:41;3.28;;;1.83;;
46290;SDS011;32023;44.444;26.006;2023-05-07T10:56:47;4.28;;;2.08;;
46290;SDS011;32023;44.444;26.006;2023-05-07T11:02:09;7.20;;;2.00;;
46290;SDS011;32023;44.444;26.006;2023-05-07T11:04:36;2.58;;;1.98;;
46290;SDS011;32023;44.444;26.006;2023-05-07T11:09:55;5.65;;;2.33;;
46290;SDS011;32023;44.444;26.006;2023-05-07T11:15:02;2.75;;;1.73;;
46290;SDS011;32023;44.444;26.006;2023-05-07T11:17:33;5.55;;;2.47;;
46290;SDS011;32023;44.444;26.006;2023-05-07T11:26:03;9.00;;;2.63;;
46290;SDS011;32023;44.444;26.006;2023-05-07T11:28:36;4.40;;;2.42;;
46290;SDS011;32023;44.444;26.006;2023-05-07T11:31:07;5.55;;;2.10;;
46290;SDS011;32023;44.444;26.006;2023-05-07T11:33:34;8.82;;;2.05;;
46290;SDS011;32023;44.444;26.006;2023-05-07T11:36:03;6.25;;;1.90;;
46290;SDS011;32023;44.444;26.006;2023-05-07T11:38:30;5.65;;;1.92;;
46290;SDS011;32023;44.444;26.006;2023-05-07T11:41:01;5.30;;;1.70;;
46290;SDS011;32023;44.444;26.006;2023-05-07T11:43:29;2.83;;;1.38;;
46290;SDS011;32023;44.444;26.006;2023-05-07T11:46:10;4.05;;;1.77;;
46290;SDS011;32023;44.444;26.006;2023-05-07T11:48:40;7.53;;;2.10;;
46290;SDS011;32023;44.444;26.006;2023-05-07T11:51:08;6.13;;;1.90;;
46290;SDS011;32023;44.444;26.006;2023-05-07T11:53:41;3.67;;;2.20;;
46290;SDS011;32023;44.444;26.006;2023-05-07T11:56:12;6.18;;;1.85;;
46290;SDS011;32023;44.444;26.006;2023-05-07T11:58:42;7.07;;;1.92;;
46290;SDS011;32023;44.444;26.006;2023-05-07T12:01:13;5.57;;;1.92;;
46290;SDS011;32023;44.444;26.006;2023-05-07T12:03:41;5.28;;;1.92;;
46290;SDS011;32023;44.444;26.006;2023-05-07T12:06:10;5.07;;;2.05;;
46290;SDS011;32023;44.444;26.006;2023-05-07T12:08:40;6.55;;;1.92;;
46290;SDS011;32023;44.444;26.006;2023-05-07T12:11:07;4.90;;;1.60;;
46290;SDS011;32023;44.444;26.006;2023-05-07T12:13:38;4.57;;;1.55;;
46290;SDS011;32023;44.444;26.006;2023-05-07T12:16:11;5.70;;;2.05;;
46290;SDS011;32023;44.444;26.006;2023-05-07T12:18:37;6.10;;;1.48;;
46290;SDS011;32023;44.444;26.006;2023-05-07T12:21:04;9.25;;;2.30;;
46290;SDS011;32023;44.444;26.006;2023-05-07T12:23:31;11.30;;;2.20;;
46290;SDS011;32023;44.444;26.006;2023-05-07T12:26:01;3.00;;;1.70;;
46290;SDS011;32023;44.444;26.006;2023-05-07T12:28:28;6.45;;;2.05;;
46290;SDS011;32023;44.444;26.006;2023-05-07T12:30:55;3.47;;;1.73;;
46290;SDS011;32023;44.444;26.006;2023-05-07T12:33:29;1.98;;;1.52;;
46290;SDS011;32023;44.444;26.006;2023-05-07T12:36:12;8.23;;;1.80;;
46290;SDS011;32023;44.444;26.006;2023-05-07T12:38:39;6.35;;;1.80;;
46290;SDS011;32023;44.444;26.006;2023-05-07T12:44:00;3.95;;;1.80;;
46290;SDS011;32023;44.444;26.006;2023-05-07T12:46:38;4.60;;;1.92;;
46290;SDS011;32023;44.444;26.006;2023-05-07T12:49:06;5.45;;;2.28;;
46290;SDS011;32023;44.444;26.006;2023-05-07T12:54:38;6.43;;;1.52;;
46290;SDS011;32023;44.444;26.006;2023-05-07T13:01:14;4.88;;;1.73;;
46290;SDS011;32023;44.444;26.006;2023-05-07T13:04:10;4.78;;;1.85;;
46290;SDS011;32023;44.444;26.006;2023-05-07T13:06:37;4.88;;;2.00;;
46290;SDS011;32023;44.444;26.006;2023-05-07T13:09:04;4.50;;;2.00;;
46290;SDS011;32023;44.444;26.006;2023-05-07T13:11:31;6.97;;;1.90;;
46290;SDS011;32023;44.444;26.006;2023-05-07T13:14:00;2.85;;;1.77;;
46290;SDS011;32023;44.444;26.006;2023-05-07T13:16:27;2.70;;;1.65;;
46290;SDS011;32023;44.444;26.006;2023-05-07T13:19:00;4.13;;;1.70;;
46290;SDS011;32023;44.444;26.006;2023-05-07T13:21:29;5.35;;;2.13;;
46290;SDS011;32023;44.444;26.006;2023-05-07T13:24:08;4.10;;;2.03;;
46290;SDS011;32023;44.444;26.006;2023-05-07T13:26:40;5.45;;;2.15;;
46290;SDS011;32023;44.444;26.006;2023-05-07T13:29:07;3.35;;;1.80;;
46290;SDS011;32023;44.444;26.006;2023-05-07T13:31:38;8.18;;;2.17;;
46290;SDS011;32023;44.444;26.006;2023-05-07T13:34:09;5.10;;;1.75;;
46290;SDS011;32023;44.444;26.006;2023-05-07T13:36:35;4.05;;;1.80;;
46290;SDS011;32023;44.444;26.006;2023-05-07T13:39:05;4.95;;;2.25;;
46290;SDS011;32023;44.444;26.006;2023-05-07T13:41:32;3.47;;;2.17;;
46290;SDS011;32023;44.444;26.006;2023-05-07T13:44:04;3.67;;;1.90;;
46290;SDS011;32023;44.444;26.006;2023-05-07T13:46:32;2.50;;;1.80;;
46290;SDS011;32023;44.444;26.006;2023-05-07T13:49:09;6.63;;;1.80;;
46290;SDS011;32023;44.444;26.006;2023-05-07T13:51:37;5.63;;;2.58;;
46290;SDS011;32023;44.444;26.006;2023-05-07T13:54:06;11.65;;;2.30;;
46290;SDS011;32023;44.444;26.006;2023-05-07T13:56:33;4.93;;;2.00;;
46290;SDS011;32023;44.444;26.006;2023-05-07T13:58:59;6.53;;;2.20;;
46290;SDS011;32023;44.444;26.006;2023-05-07T14:01:25;2.13;;;1.73;;
46290;SDS011;32023;44.444;26.006;2023-05-07T14:06:25;7.50;;;2.22;;
46290;SDS011;32023;44.444;26.006;2023-05-07T14:08:51;4.82;;;2.20;;
46290;SDS011;32023;44.444;26.006;2023-05-07T14:11:20;7.13;;;2.53;;
46290;SDS011;32023;44.444;26.006;2023-05-07T14:13:47;5.10;;;2.05;;
46290;SDS011;32023;44.444;26.006;2023-05-07T14:16:16;5.78;;;1.90;;
46290;SDS011;32023;44.444;26.006;2023-05-07T14:18:49;3.17;;;1.48;;
46290;SDS011;32023;44.444;26.006;2023-05-07T14:21:19;7.90;;;2.15;;
46290;SDS011;32023;44.444;26.006;2023-05-07T14:23:45;3.65;;;1.73;;
46290;SDS011;32023;44.444;26.006;2023-05-07T14:26:12;3.10;;;2.10;;
46290;SDS011;32023;44.444;26.006;2023-05-07T14:28:40;7.07;;;2.28;;
46290;SDS011;32023;44.444;26.006;2023-05-07T14:31:12;6.45;;;2.10;;
46290;SDS011;32023;44.444;26.006;2023-05-07T14:33:39;6.50;;;1.95;;
46290;SDS011;32023;44.444;26.006;2023-05-07T14:36:09;2.83;;;1.80;;
46290;SDS011;32023;44.444;26.006;2023-05-07T14:38:36;5.82;;;2.17;;
46290;SDS011;32023;44.444;26.006;2023-05-07T14:41:05;8.55;;;1.75;;
46290;SDS011;32023;44.444;26.006;2023-05-07T14:43:32;8.30;;;2.20;;
46290;SDS011;32023;44.444;26.006;2023-05-07T14:45:58;7.97;;;1.77;;
46290;SDS011;32023;44.444;26.006;2023-05-07T14:50:56;4.78;;;2.25;;
46290;SDS011;32023;44.444;26.006;2023-05-07T14:53:22;8.75;;;2.70;;
46290;SDS011;32023;44.444;26.006;2023-05-07T14:55:49;5.25;;;3.47;;
46290;SDS011;32023;44.444;26.006;2023-05-07T14:58:15;2.97;;;2.00;;
46290;SDS011;32023;44.444;26.006;2023-05-07T15:00:46;7.63;;;2.47;;
46290;SDS011;32023;44.444;26.006;2023-05-07T15:03:15;4.68;;;2.28;;
46290;SDS011;32023;44.444;26.006;2023-05-07T15:08:26;6.63;;;2.17;;
46290;SDS011;32023;44.444;26.006;2023-05-07T15:10:52;6.82;;;2.30;;
46290;SDS011;32023;44.444;26.006;2023-05-07T15:13:22;5.22;;;2.40;;
46290;SDS011;32023;44.444;26.006;2023-05-07T15:15:49;3.90;;;2.13;;
46290;SDS011;32023;44.444;26.006;2023-05-07T15:18:16;4.95;;;2.13;;
46290;SDS011;32023;44.444;26.006;2023-05-07T15:20:42;4.45;;;1.90;;
46290;SDS011;32023;44.444;26.006;2023-05-07T15:23:09;6.20;;;2.20;;
46290;SDS011;32023;44.444;26.006;2023-05-07T15:25:39;3.17;;;1.83;;
46290;SDS011;32023;44.444;26.006;2023-05-07T15:28:05;6.15;;;2.30;;
46290;SDS011;32023;44.444;26.006;2023-05-07T15:30:34;6.38;;;2.40;;
46290;SDS011;32023;44.444;26.006;2023-05-07T15:33:01;6.20;;;2.75;;
46290;SDS011;32023;44.444;26.006;2023-05-07T15:35:28;3.90;;;2.13;;
46290;SDS011;32023;44.444;26.006;2023-05-07T15:37:55;6.80;;;2.75;;
46290;SDS011;32023;44.444;26.006;2023-05-07T15:40:22;4.75;;;1.77;;
46290;SDS011;32023;44.444;26.006;2023-05-07T15:42:48;3.45;;;2.40;;
46290;SDS011;32023;44.444;26.006;2023-05-07T15:45:22;4.40;;;2.40;;
46290;SDS011;32023;44.444;26.006;2023-05-07T15:47:56;11.45;;;2.05;;
46290;SDS011;32023;44.444;26.006;2023-05-07T15:50:25;6.63;;;1.90;;
46290;SDS011;32023;44.444;26.006;2023-05-07T15:52:51;4.97;;;2.50;;
46290;SDS011;32023;44.444;26.006;2023-05-07T15:58:38;5.03;;;1.83;;
46290;SDS011;32023;44.444;26.006;2023-05-07T16:01:04;4.82;;;2.00;;
46290;SDS011;32023;44.444;26.006;2023-05-07T16:03:34;7.25;;;2.63;;
46290;SDS011;32023;44.444;26.006;2023-05-07T16:15:17;4.75;;;2.92;;
46290;SDS011;32023;44.444;26.006;2023-05-07T16:17:48;7.05;;;3.13;;
46290;SDS011;32023;44.444;26.006;2023-05-07T16:20:18;8.27;;;2.38;;
46290;SDS011;32023;44.444;26.006;2023-05-07T16:28:51;6.90;;;3.88;;
46290;SDS011;32023;44.444;26.006;2023-05-07T16:37:51;3.90;;;2.22;;
46290;SDS011;32023;44.444;26.006;2023-05-07T16:40:22;9.20;;;2.50;;
46290;SDS011;32023;44.444;26.006;2023-05-07T16:43:06;7.38;;;3.72;;
46290;SDS011;32023;44.444;26.006;2023-05-07T16:50:07;7.40;;;3.63;;
46290;SDS011;32023;44.444;26.006;2023-05-07T16:58:38;8.02;;;2.38;;
46290;SDS011;32023;44.444;26.006;2023-05-07T17:01:05;3.95;;;2.35;;
46290;SDS011;32023;44.444;26.006;2023-05-07T17:03:36;5.47;;;2.55;;
46290;SDS011;32023;44.444;26.006;2023-05-07T17:06:06;8.13;;;2.78;;
46290;SDS011;32023;44.444;26.006;2023-05-07T17:14:50;8.18;;;4.45;;
46290;SDS011;32023;44.444;26.006;2023-05-07T17:20:18;10.50;;;3.60;;
46290;SDS011;32023;44.444;26.006;2023-05-07T17:22:47;11.00;;;4.70;;
46290;SDS011;32023;44.444;26.006;2023-05-07T17:35:19;7.93;;;4.00;;
46290;SDS011;32023;44.444;26.006;2023-05-07T17:58:54;5.35;;;3.88;;
46290;SDS011;32023;44.444;26.006;2023-05-07T18:15:06;4.40;;;3.22;;
46290;SDS011;32023;44.444;26.006;2023-05-07T18:21:56;5.03;;;2.60;;
46290;SDS011;32023;44.444;26.006;2023-05-07T18:27:55;6.20;;;2.60;;
46290;SDS011;32023;44.444;26.006;2023-05-07T19:19:16;8.82;;;2.95;;
46290;SDS011;32023;44.444;26.006;2023-05-07T19:27:30;9.82;;;3.13;;
46290;SDS011;32023;44.444;26.006;2023-05-07T19:30:03;7.38;;;3.00;;
46290;SDS011;32023;44.444;26.006;2023-05-07T19:32:38;6.53;;;3.35;;
46290;SDS011;32023;44.444;26.006;2023-05-07T19:45:04;7.45;;;3.45;;
46290;SDS011;32023;44.444;26.006;2023-05-07T19:51:24;8.68;;;2.92;;
46290;SDS011;32023;44.444;26.006;2023-05-07T19:57:19;9.00;;;3.72;;
46290;SDS011;32023;44.444;26.006;2023-05-07T20:00:08;9.98;;;3.88;;
46290;SDS011;32023;44.444;26.006;2023-05-07T20:09:36;10.48;;;3.55;;
46290;SDS011;32023;44.444;26.006;2023-05-07T20:16:05;11.80;;;3.42;;
46290;SDS011;32023;44.444;26.006;2023-05-07T20:21:47;7.72;;;3.92;;
46290;SDS011;32023;44.444;26.006;2023-05-07T20:24:15;7.53;;;3.83;;
46290;SDS011;32023;44.444;26.006;2023-05-07T20:40:32;11.23;;;3.90;;
46290;SDS011;32023;44.444;26.006;2023-05-07T20:43:27;10.77;;;4.78;;
46290;SDS011;32023;44.444;26.006;2023-05-07T20:46:26;6.90;;;3.47;;
46290;SDS011;32023;44.444;26.006;2023-05-07T21:00:09;17.23;;;5.38;;
46290;SDS011;32023;44.444;26.006;2023-05-07T22:25:44;8.25;;;3.30;;
46290;SDS011;32023;44.444;26.006;2023-05-07T22:28:36;7.97;;;3.08;;
46290;SDS011;32023;44.444;26.006;2023-05-07T22:45:24;6.03;;;3.00;;
46290;SDS011;32023;44.444;26.006;2023-05-07T22:54:52;9.75;;;3.13;;
46290;SDS011;32023;44.444;26.006;2023-05-07T22:57:23;5.38;;;3.03;;
46290;SDS011;32023;44.444;26.006;2023-05-07T22:59:54;8.30;;;3.17;;
46290;SDS011;32023;44.444;26.006;2023-05-07T23:02:26;6.88;;;2.70;;
46290;SDS011;32023;44.444;26.006;2023-05-07T23:08:16;8.52;;;3.28;;
46290;SDS011;32023;44.444;26.006;2023-05-07T23:10:51;10.45;;;3.05;;
46290;SDS011;32023;44.444;26.006;2023-05-07T23:19:50;6.57;;;2.75;;
46290;SDS011;32023;44.444;26.006;2023-05-07T23:22:46;4.60;;;2.83;;
46290;SDS011;32023;44.444;26.006;2023-05-07T23:28:47;6.23;;;2.67;;
46290;SDS011;32023;44.444;26.006;2023-05-07T23:34:28;7.38;;;2.95;;
46290;SDS011;32023;44.444;26.006;2023-05-07T23:46:53;5.30;;;2.88;;
46290;SDS011;32023;44.444;26.006;2023-05-07T23:56:29;6.30;;;2.92;;
